Aberdeen, Maryland
Current Conditions -  °F | °C
As of 3:21 AM on Monday 22 Dec 2014 (Local Time) from KMTN Reporting Station
Clear Clear  
Wind Chill: 28°   Ceiling: Unl
Heat Index: 28°   Visibility: 7mi
Dew Point: 27°   Wind: 0mph
Humidity: 93%   Direction: NA
Pressure: 30.34"   Gusts: NA
Location:  39.51°N, 76.16°W
Report Text: KMTN 220821Z AUTO 00000KT 7SM CLR M02/M03 A3034 RMK AO2
Loading
Personal Weather Stations






























Interactive Weather Map New forecast layout! Learn more

10-Day Weather Forecast

Advertisements
Track Severe Weather on mobile